sensor_id;sensor_type;location;lat;lon;timestamp;P1;durP1;ratioP1;P2;durP2;ratioP2
35877;SDS011;21982;49.804;24.072;2023-04-03T00:01:18;3.78;;;1.60;;
35877;SDS011;21982;49.804;24.072;2023-04-03T00:03:44;3.25;;;1.00;;
35877;SDS011;21982;49.804;24.072;2023-04-03T00:06:11;3.17;;;1.10;;
35877;SDS011;21982;49.804;24.072;2023-04-03T00:08:38;3.90;;;1.33;;
35877;SDS011;21982;49.804;24.072;2023-04-03T00:11:05;3.00;;;1.45;;
35877;SDS011;21982;49.804;24.072;2023-04-03T00:13:31;3.28;;;1.60;;
35877;SDS011;21982;49.804;24.072;2023-04-03T00:15:58;2.25;;;1.23;;
35877;SDS011;21982;49.804;24.072;2023-04-03T00:18:23;1.27;;;0.77;;
35877;SDS011;21982;49.804;24.072;2023-04-03T00:20:49;2.75;;;1.08;;
35877;SDS011;21982;49.804;24.072;2023-04-03T00:23:15;2.67;;;0.77;;
35877;SDS011;21982;49.804;24.072;2023-04-03T00:25:40;2.72;;;1.30;;
35877;SDS011;21982;49.804;24.072;2023-04-03T00:28:06;2.42;;;0.80;;
35877;SDS011;21982;49.804;24.072;2023-04-03T00:30:32;3.78;;;1.08;;
35877;SDS011;21982;49.804;24.072;2023-04-03T00:32:58;3.13;;;0.98;;
35877;SDS011;21982;49.804;24.072;2023-04-03T00:35:24;2.08;;;0.90;;
35877;SDS011;21982;49.804;24.072;2023-04-03T00:37:53;2.28;;;0.95;;
35877;SDS011;21982;49.804;24.072;2023-04-03T00:40:20;1.25;;;0.60;;
35877;SDS011;21982;49.804;24.072;2023-04-03T00:42:47;1.65;;;1.10;;
35877;SDS011;21982;49.804;24.072;2023-04-03T00:45:23;2.13;;;1.25;;
35877;SDS011;21982;49.804;24.072;2023-04-03T00:47:52;2.05;;;0.85;;
35877;SDS011;21982;49.804;24.072;2023-04-03T00:50:18;2.22;;;1.27;;
35877;SDS011;21982;49.804;24.072;2023-04-03T00:52:43;1.67;;;0.68;;
35877;SDS011;21982;49.804;24.072;2023-04-03T00:55:11;3.10;;;0.82;;
35877;SDS011;21982;49.804;24.072;2023-04-03T00:57:37;2.92;;;1.05;;
35877;SDS011;21982;49.804;24.072;2023-04-03T01:00:05;3.42;;;1.10;;
35877;SDS011;21982;49.804;24.072;2023-04-03T01:02:34;1.27;;;0.82;;
35877;SDS011;21982;49.804;24.072;2023-04-03T01:05:00;2.50;;;1.45;;
35877;SDS011;21982;49.804;24.072;2023-04-03T01:07:29;3.10;;;1.27;;
35877;SDS011;21982;49.804;24.072;2023-04-03T01:09:57;1.73;;;0.70;;
35877;SDS011;21982;49.804;24.072;2023-04-03T01:12:26;2.15;;;1.25;;
35877;SDS011;21982;49.804;24.072;2023-04-03T01:14:56;2.60;;;0.93;;
35877;SDS011;21982;49.804;24.072;2023-04-03T01:17:31;2.53;;;1.10;;
35877;SDS011;21982;49.804;24.072;2023-04-03T01:25:40;4.05;;;1.38;;
35877;SDS011;21982;49.804;24.072;2023-04-03T01:28:06;3.33;;;1.58;;
35877;SDS011;21982;49.804;24.072;2023-04-03T01:30:39;4.18;;;1.80;;
35877;SDS011;21982;49.804;24.072;2023-04-03T01:33:13;2.35;;;1.52;;
35877;SDS011;21982;49.804;24.072;2023-04-03T01:35:39;4.05;;;1.52;;
35877;SDS011;21982;49.804;24.072;2023-04-03T01:38:05;3.65;;;1.80;;
35877;SDS011;21982;49.804;24.072;2023-04-03T01:40:31;3.88;;;1.48;;
35877;SDS011;21982;49.804;24.072;2023-04-03T01:42:57;4.32;;;2.10;;
35877;SDS011;21982;49.804;24.072;2023-04-03T01:45:22;3.92;;;1.70;;
35877;SDS011;21982;49.804;24.072;2023-04-03T01:47:48;6.55;;;2.67;;
35877;SDS011;21982;49.804;24.072;2023-04-03T01:50:13;3.60;;;1.77;;
35877;SDS011;21982;49.804;24.072;2023-04-03T01:52:39;3.97;;;2.00;;
35877;SDS011;21982;49.804;24.072;2023-04-03T01:55:04;3.70;;;2.50;;
35877;SDS011;21982;49.804;24.072;2023-04-03T01:57:30;4.13;;;2.03;;
35877;SDS011;21982;49.804;24.072;2023-04-03T01:59:55;4.20;;;1.70;;
35877;SDS011;21982;49.804;24.072;2023-04-03T02:02:20;3.38;;;1.60;;
35877;SDS011;21982;49.804;24.072;2023-04-03T02:04:46;3.75;;;1.80;;
35877;SDS011;21982;49.804;24.072;2023-04-03T02:07:11;4.20;;;1.92;;
35877;SDS011;21982;49.804;24.072;2023-04-03T02:09:37;3.05;;;1.40;;
35877;SDS011;21982;49.804;24.072;2023-04-03T02:12:02;3.03;;;1.13;;
35877;SDS011;21982;49.804;24.072;2023-04-03T02:14:28;1.75;;;1.08;;
35877;SDS011;21982;49.804;24.072;2023-04-03T02:16:53;2.15;;;1.30;;
35877;SDS011;21982;49.804;24.072;2023-04-03T02:19:19;2.88;;;1.98;;
35877;SDS011;21982;49.804;24.072;2023-04-03T02:21:44;4.63;;;2.47;;
35877;SDS011;21982;49.804;24.072;2023-04-03T02:24:09;5.38;;;2.25;;
35877;SDS011;21982;49.804;24.072;2023-04-03T02:26:35;3.80;;;1.70;;
35877;SDS011;21982;49.804;24.072;2023-04-03T02:29:00;3.13;;;1.77;;
35877;SDS011;21982;49.804;24.072;2023-04-03T02:31:25;3.55;;;1.83;;
35877;SDS011;21982;49.804;24.072;2023-04-03T02:33:51;2.78;;;1.70;;
35877;SDS011;21982;49.804;24.072;2023-04-03T02:36:16;3.35;;;1.67;;
35877;SDS011;21982;49.804;24.072;2023-04-03T02:38:42;3.92;;;1.55;;
35877;SDS011;21982;49.804;24.072;2023-04-03T02:41:09;2.42;;;1.30;;
35877;SDS011;21982;49.804;24.072;2023-04-03T02:43:36;4.55;;;1.77;;
35877;SDS011;21982;49.804;24.072;2023-04-03T02:46:01;2.13;;;1.40;;
35877;SDS011;21982;49.804;24.072;2023-04-03T02:48:27;3.85;;;1.60;;
35877;SDS011;21982;49.804;24.072;2023-04-03T02:50:52;2.92;;;1.45;;
35877;SDS011;21982;49.804;24.072;2023-04-03T02:53:18;3.72;;;1.60;;
35877;SDS011;21982;49.804;24.072;2023-04-03T02:55:44;4.70;;;1.80;;
35877;SDS011;21982;49.804;24.072;2023-04-03T02:58:10;9.52;;;2.70;;
35877;SDS011;21982;49.804;24.072;2023-04-03T03:00:36;5.13;;;2.20;;
35877;SDS011;21982;49.804;24.072;2023-04-03T03:03:02;4.20;;;1.88;;
35877;SDS011;21982;49.804;24.072;2023-04-03T03:05:29;4.03;;;2.10;;
35877;SDS011;21982;49.804;24.072;2023-04-03T03:07:55;3.55;;;2.08;;
35877;SDS011;21982;49.804;24.072;2023-04-03T03:10:21;2.92;;;1.90;;
35877;SDS011;21982;49.804;24.072;2023-04-03T03:12:47;6.90;;;1.98;;
35877;SDS011;21982;49.804;24.072;2023-04-03T03:15:12;5.70;;;2.40;;
35877;SDS011;21982;49.804;24.072;2023-04-03T03:17:37;4.30;;;2.28;;
35877;SDS011;21982;49.804;24.072;2023-04-03T03:20:04;4.78;;;2.13;;
35877;SDS011;21982;49.804;24.072;2023-04-03T03:22:30;5.13;;;2.58;;
35877;SDS011;21982;49.804;24.072;2023-04-03T03:24:57;3.13;;;1.80;;
35877;SDS011;21982;49.804;24.072;2023-04-03T03:27:24;7.15;;;2.55;;
35877;SDS011;21982;49.804;24.072;2023-04-03T03:29:49;4.22;;;2.30;;
35877;SDS011;21982;49.804;24.072;2023-04-03T03:32:15;5.53;;;2.45;;
35877;SDS011;21982;49.804;24.072;2023-04-03T03:34:40;3.90;;;2.60;;
35877;SDS011;21982;49.804;24.072;2023-04-03T03:37:06;6.90;;;3.13;;
35877;SDS011;21982;49.804;24.072;2023-04-03T03:39:31;6.38;;;2.63;;
35877;SDS011;21982;49.804;24.072;2023-04-03T03:41:58;5.22;;;2.80;;
35877;SDS011;21982;49.804;24.072;2023-04-03T03:44:23;5.30;;;2.67;;
35877;SDS011;21982;49.804;24.072;2023-04-03T03:46:48;5.45;;;3.38;;
35877;SDS011;21982;49.804;24.072;2023-04-03T03:49:14;5.65;;;2.90;;
35877;SDS011;21982;49.804;24.072;2023-04-03T03:51:39;4.88;;;2.33;;
35877;SDS011;21982;49.804;24.072;2023-04-03T03:54:05;6.57;;;3.15;;
35877;SDS011;21982;49.804;24.072;2023-04-03T03:56:31;4.60;;;2.67;;
35877;SDS011;21982;49.804;24.072;2023-04-03T03:58:57;4.63;;;2.47;;
35877;SDS011;21982;49.804;24.072;2023-04-03T04:01:23;4.65;;;2.65;;
35877;SDS011;21982;49.804;24.072;2023-04-03T04:03:49;4.32;;;2.20;;
35877;SDS011;21982;49.804;24.072;2023-04-03T04:06:15;4.45;;;2.38;;
35877;SDS011;21982;49.804;24.072;2023-04-03T04:08:41;4.72;;;2.38;;
35877;SDS011;21982;49.804;24.072;2023-04-03T04:11:07;3.97;;;2.22;;
35877;SDS011;21982;49.804;24.072;2023-04-03T04:13:33;5.40;;;2.50;;
35877;SDS011;21982;49.804;24.072;2023-04-03T04:16:00;2.97;;;1.73;;
35877;SDS011;21982;49.804;24.072;2023-04-03T04:18:25;4.20;;;2.00;;
35877;SDS011;21982;49.804;24.072;2023-04-03T04:20:51;4.13;;;1.90;;
35877;SDS011;21982;49.804;24.072;2023-04-03T04:23:17;4.40;;;2.67;;
35877;SDS011;21982;49.804;24.072;2023-04-03T04:25:46;4.88;;;3.05;;
35877;SDS011;21982;49.804;24.072;2023-04-03T04:28:12;4.85;;;2.85;;
35877;SDS011;21982;49.804;24.072;2023-04-03T04:30:38;4.75;;;2.25;;
35877;SDS011;21982;49.804;24.072;2023-04-03T04:33:03;4.30;;;2.08;;
35877;SDS011;21982;49.804;24.072;2023-04-03T04:35:28;4.50;;;2.53;;
35877;SDS011;21982;49.804;24.072;2023-04-03T04:37:54;3.50;;;2.17;;
35877;SDS011;21982;49.804;24.072;2023-04-03T04:40:19;3.20;;;1.73;;
35877;SDS011;21982;49.804;24.072;2023-04-03T04:42:45;4.05;;;2.67;;
35877;SDS011;21982;49.804;24.072;2023-04-03T04:45:11;4.00;;;1.88;;
35877;SDS011;21982;49.804;24.072;2023-04-03T04:47:36;6.00;;;2.65;;
35877;SDS011;21982;49.804;24.072;2023-04-03T04:50:02;4.22;;;2.42;;
35877;SDS011;21982;49.804;24.072;2023-04-03T04:52:28;7.25;;;3.50;;
35877;SDS011;21982;49.804;24.072;2023-04-03T04:54:53;4.72;;;3.17;;
35877;SDS011;21982;49.804;24.072;2023-04-03T04:57:18;5.68;;;2.47;;
35877;SDS011;21982;49.804;24.072;2023-04-03T04:59:44;6.55;;;3.10;;
35877;SDS011;21982;49.804;24.072;2023-04-03T05:02:09;6.15;;;5.07;;
35877;SDS011;21982;49.804;24.072;2023-04-03T05:04:35;4.68;;;2.85;;
35877;SDS011;21982;49.804;24.072;2023-04-03T05:07:00;5.57;;;2.97;;
35877;SDS011;21982;49.804;24.072;2023-04-03T05:09:25;5.53;;;2.75;;
35877;SDS011;21982;49.804;24.072;2023-04-03T05:11:51;6.25;;;2.75;;
35877;SDS011;21982;49.804;24.072;2023-04-03T05:14:16;7.45;;;2.63;;
35877;SDS011;21982;49.804;24.072;2023-04-03T05:16:41;4.00;;;2.20;;
35877;SDS011;21982;49.804;24.072;2023-04-03T05:19:07;5.47;;;2.63;;
35877;SDS011;21982;49.804;24.072;2023-04-03T05:21:33;5.88;;;3.72;;
35877;SDS011;21982;49.804;24.072;2023-04-03T05:23:58;4.63;;;2.88;;
35877;SDS011;21982;49.804;24.072;2023-04-03T05:26:27;5.15;;;2.63;;
35877;SDS011;21982;49.804;24.072;2023-04-03T05:28:53;7.65;;;3.55;;
35877;SDS011;21982;49.804;24.072;2023-04-03T05:31:18;7.13;;;3.78;;
35877;SDS011;21982;49.804;24.072;2023-04-03T05:33:44;8.15;;;4.18;;
35877;SDS011;21982;49.804;24.072;2023-04-03T05:36:11;6.60;;;3.40;;
35877;SDS011;21982;49.804;24.072;2023-04-03T05:38:37;6.25;;;3.85;;
35877;SDS011;21982;49.804;24.072;2023-04-03T05:41:03;7.20;;;3.60;;
35877;SDS011;21982;49.804;24.072;2023-04-03T05:43:29;6.93;;;3.88;;
35877;SDS011;21982;49.804;24.072;2023-04-03T05:45:54;4.63;;;2.60;;
35877;SDS011;21982;49.804;24.072;2023-04-03T05:48:20;5.38;;;2.40;;
35877;SDS011;21982;49.804;24.072;2023-04-03T05:50:46;8.70;;;4.03;;
35877;SDS011;21982;49.804;24.072;2023-04-03T05:53:19;10.85;;;5.18;;
35877;SDS011;21982;49.804;24.072;2023-04-03T05:55:48;7.90;;;4.35;;
35877;SDS011;21982;49.804;24.072;2023-04-03T05:58:13;11.43;;;5.75;;
35877;SDS011;21982;49.804;24.072;2023-04-03T06:00:39;12.63;;;5.70;;
35877;SDS011;21982;49.804;24.072;2023-04-03T06:03:05;13.63;;;7.00;;
35877;SDS011;21982;49.804;24.072;2023-04-03T06:05:31;8.52;;;4.57;;
35877;SDS011;21982;49.804;24.072;2023-04-03T06:07:56;8.05;;;4.30;;
35877;SDS011;21982;49.804;24.072;2023-04-03T06:10:23;9.15;;;4.93;;
35877;SDS011;21982;49.804;24.072;2023-04-03T06:12:49;10.88;;;5.65;;
35877;SDS011;21982;49.804;24.072;2023-04-03T06:15:15;7.53;;;3.60;;
35877;SDS011;21982;49.804;24.072;2023-04-03T06:17:42;8.35;;;3.72;;
35877;SDS011;21982;49.804;24.072;2023-04-03T06:20:07;7.32;;;4.25;;
35877;SDS011;21982;49.804;24.072;2023-04-03T06:22:35;8.20;;;3.88;;
35877;SDS011;21982;49.804;24.072;2023-04-03T06:25:01;8.93;;;4.18;;
35877;SDS011;21982;49.804;24.072;2023-04-03T06:27:27;8.35;;;4.53;;
35877;SDS011;21982;49.804;24.072;2023-04-03T06:29:52;7.47;;;3.47;;
35877;SDS011;21982;49.804;24.072;2023-04-03T06:32:18;8.13;;;3.85;;
35877;SDS011;21982;49.804;24.072;2023-04-03T06:34:43;8.80;;;3.88;;
35877;SDS011;21982;49.804;24.072;2023-04-03T06:37:16;6.63;;;3.58;;
35877;SDS011;21982;49.804;24.072;2023-04-03T06:39:45;6.57;;;3.80;;
35877;SDS011;21982;49.804;24.072;2023-04-03T06:42:10;5.72;;;3.20;;
35877;SDS011;21982;49.804;24.072;2023-04-03T06:44:36;5.25;;;3.53;;
35877;SDS011;21982;49.804;24.072;2023-04-03T06:47:01;7.07;;;3.70;;
35877;SDS011;21982;49.804;24.072;2023-04-03T06:49:27;6.40;;;3.20;;
35877;SDS011;21982;49.804;24.072;2023-04-03T06:51:52;7.22;;;3.97;;
35877;SDS011;21982;49.804;24.072;2023-04-03T06:54:18;8.65;;;4.32;;
35877;SDS011;21982;49.804;24.072;2023-04-03T06:56:43;6.88;;;3.33;;
35877;SDS011;21982;49.804;24.072;2023-04-03T06:59:09;4.28;;;2.70;;
35877;SDS011;21982;49.804;24.072;2023-04-03T07:01:37;5.55;;;3.33;;
35877;SDS011;21982;49.804;24.072;2023-04-03T07:04:03;6.45;;;3.20;;
35877;SDS011;21982;49.804;24.072;2023-04-03T07:06:29;7.35;;;3.40;;
35877;SDS011;21982;49.804;24.072;2023-04-03T07:08:56;6.35;;;3.45;;
35877;SDS011;21982;49.804;24.072;2023-04-03T07:11:21;8.30;;;3.97;;
35877;SDS011;21982;49.804;24.072;2023-04-03T07:13:47;6.10;;;3.10;;
35877;SDS011;21982;49.804;24.072;2023-04-03T07:16:13;6.38;;;3.92;;
35877;SDS011;21982;49.804;24.072;2023-04-03T07:18:41;8.88;;;4.72;;
35877;SDS011;21982;49.804;24.072;2023-04-03T07:21:10;4.75;;;2.70;;
35877;SDS011;21982;49.804;24.072;2023-04-03T07:23:39;4.13;;;2.13;;
35877;SDS011;21982;49.804;24.072;2023-04-03T07:26:05;4.43;;;2.47;;
35877;SDS011;21982;49.804;24.072;2023-04-03T07:28:31;4.97;;;2.47;;
35877;SDS011;21982;49.804;24.072;2023-04-03T07:31:04;5.13;;;3.35;;
35877;SDS011;21982;49.804;24.072;2023-04-03T07:33:33;4.60;;;2.20;;
35877;SDS011;21982;49.804;24.072;2023-04-03T07:35:59;4.90;;;2.20;;
35877;SDS011;21982;49.804;24.072;2023-04-03T07:38:25;4.45;;;2.35;;
35877;SDS011;21982;49.804;24.072;2023-04-03T07:40:52;4.72;;;2.30;;
35877;SDS011;21982;49.804;24.072;2023-04-03T07:43:19;6.18;;;3.13;;
35877;SDS011;21982;49.804;24.072;2023-04-03T07:45:45;5.63;;;3.20;;
35877;SDS011;21982;49.804;24.072;2023-04-03T07:48:14;6.00;;;2.60;;
35877;SDS011;21982;49.804;24.072;2023-04-03T07:50:41;5.95;;;2.63;;
35877;SDS011;21982;49.804;24.072;2023-04-03T07:53:07;6.60;;;2.70;;
35877;SDS011;21982;49.804;24.072;2023-04-03T07:55:33;4.75;;;2.80;;
35877;SDS011;21982;49.804;24.072;2023-04-03T07:57:59;4.45;;;2.45;;
35877;SDS011;21982;49.804;24.072;2023-04-03T08:00:24;6.28;;;2.70;;
35877;SDS011;21982;49.804;24.072;2023-04-03T08:02:50;4.32;;;2.40;;
35877;SDS011;21982;49.804;24.072;2023-04-03T08:05:19;6.47;;;3.38;;
35877;SDS011;21982;49.804;24.072;2023-04-03T08:07:46;2.72;;;2.05;;
35877;SDS011;21982;49.804;24.072;2023-04-03T08:10:14;4.30;;;3.25;;
35877;SDS011;21982;49.804;24.072;2023-04-03T08:12:40;5.13;;;2.38;;
35877;SDS011;21982;49.804;24.072;2023-04-03T08:15:06;5.47;;;2.90;;
35877;SDS011;21982;49.804;24.072;2023-04-03T08:17:33;6.18;;;3.13;;
35877;SDS011;21982;49.804;24.072;2023-04-03T08:19:58;5.93;;;2.75;;
35877;SDS011;21982;49.804;24.072;2023-04-03T08:22:24;4.35;;;2.88;;
35877;SDS011;21982;49.804;24.072;2023-04-03T08:24:49;4.38;;;2.97;;
35877;SDS011;21982;49.804;24.072;2023-04-03T08:27:15;4.53;;;2.75;;
35877;SDS011;21982;49.804;24.072;2023-04-03T08:29:40;4.07;;;2.50;;
35877;SDS011;21982;49.804;24.072;2023-04-03T08:32:06;3.55;;;2.38;;
35877;SDS011;21982;49.804;24.072;2023-04-03T08:34:33;5.57;;;2.70;;
35877;SDS011;21982;49.804;24.072;2023-04-03T08:37:00;4.10;;;2.90;;
35877;SDS011;21982;49.804;24.072;2023-04-03T08:39:26;6.10;;;2.80;;
35877;SDS011;21982;49.804;24.072;2023-04-03T08:41:52;4.93;;;2.83;;
35877;SDS011;21982;49.804;24.072;2023-04-03T08:44:30;5.05;;;2.55;;
35877;SDS011;21982;49.804;24.072;2023-04-03T08:52:41;4.60;;;2.40;;
35877;SDS011;21982;49.804;24.072;2023-04-03T08:57:48;4.15;;;2.20;;
35877;SDS011;21982;49.804;24.072;2023-04-03T09:00:23;5.32;;;3.47;;
35877;SDS011;21982;49.804;24.072;2023-04-03T09:02:54;6.88;;;3.83;;
35877;SDS011;21982;49.804;24.072;2023-04-03T09:08:12;5.30;;;3.10;;
35877;SDS011;21982;49.804;24.072;2023-04-03T09:10:44;5.90;;;3.13;;
35877;SDS011;21982;49.804;24.072;2023-04-03T09:15:52;7.90;;;4.13;;
35877;SDS011;21982;49.804;24.072;2023-04-03T09:21:06;6.75;;;2.78;;
35877;SDS011;21982;49.804;24.072;2023-04-03T09:26:13;6.18;;;3.38;;
35877;SDS011;21982;49.804;24.072;2023-04-03T09:28:42;3.92;;;2.20;;
35877;SDS011;21982;49.804;24.072;2023-04-03T09:31:14;5.22;;;2.50;;
35877;SDS011;21982;49.804;24.072;2023-04-03T09:33:41;4.80;;;2.47;;
35877;SDS011;21982;49.804;24.072;2023-04-03T09:36:07;4.80;;;2.35;;
35877;SDS011;21982;49.804;24.072;2023-04-03T09:38:32;5.28;;;2.30;;
35877;SDS011;21982;49.804;24.072;2023-04-03T09:43:33;3.72;;;2.30;;
35877;SDS011;21982;49.804;24.072;2023-04-03T09:46:24;4.32;;;2.00;;
35877;SDS011;21982;49.804;24.072;2023-04-03T09:49:01;4.78;;;2.17;;
35877;SDS011;21982;49.804;24.072;2023-04-03T09:51:28;5.05;;;2.78;;
35877;SDS011;21982;49.804;24.072;2023-04-03T09:53:56;4.85;;;2.80;;
35877;SDS011;21982;49.804;24.072;2023-04-03T09:56:26;5.68;;;2.60;;
35877;SDS011;21982;49.804;24.072;2023-04-03T10:01:26;6.15;;;3.35;;
35877;SDS011;21982;49.804;24.072;2023-04-03T10:06:43;6.25;;;2.90;;
35877;SDS011;21982;49.804;24.072;2023-04-03T10:09:27;4.65;;;2.70;;
35877;SDS011;21982;49.804;24.072;2023-04-03T10:12:11;3.67;;;2.42;;
35877;SDS011;21982;49.804;24.072;2023-04-03T10:14:58;4.28;;;2.42;;
35877;SDS011;21982;49.804;24.072;2023-04-03T10:31:08;7.25;;;4.20;;
35877;SDS011;21982;49.804;24.072;2023-04-03T10:44:30;4.15;;;1.98;;
35877;SDS011;21982;49.804;24.072;2023-04-03T10:47:02;3.97;;;1.80;;
35877;SDS011;21982;49.804;24.072;2023-04-03T10:52:47;5.00;;;2.75;;
35877;SDS011;21982;49.804;24.072;2023-04-03T10:55:34;3.90;;;2.83;;
35877;SDS011;21982;49.804;24.072;2023-04-03T10:58:02;3.30;;;1.83;;
35877;SDS011;21982;49.804;24.072;2023-04-03T11:00:39;5.03;;;2.17;;
35877;SDS011;21982;49.804;24.072;2023-04-03T11:03:11;6.43;;;2.50;;
35877;SDS011;21982;49.804;24.072;2023-04-03T11:05:47;3.42;;;2.10;;
35877;SDS011;21982;49.804;24.072;2023-04-03T11:08:24;3.42;;;1.80;;
35877;SDS011;21982;49.804;24.072;2023-04-03T11:10:56;6.40;;;2.90;;
35877;SDS011;21982;49.804;24.072;2023-04-03T11:16:03;4.57;;;2.65;;
35877;SDS011;21982;49.804;24.072;2023-04-03T11:18:33;7.35;;;2.97;;
35877;SDS011;21982;49.804;24.072;2023-04-03T11:23:49;5.78;;;3.67;;
35877;SDS011;21982;49.804;24.072;2023-04-03T11:26:38;5.10;;;3.28;;
35877;SDS011;21982;49.804;24.072;2023-04-03T11:29:07;6.45;;;2.92;;
35877;SDS011;21982;49.804;24.072;2023-04-03T11:32:01;3.70;;;2.05;;
35877;SDS011;21982;49.804;24.072;2023-04-03T11:34:40;5.70;;;3.10;;
35877;SDS011;21982;49.804;24.072;2023-04-03T11:37:13;3.63;;;2.38;;
35877;SDS011;21982;49.804;24.072;2023-04-03T11:40:07;4.82;;;2.45;;
35877;SDS011;21982;49.804;24.072;2023-04-03T11:42:47;3.33;;;1.85;;
35877;SDS011;21982;49.804;24.072;2023-04-03T11:48:02;4.95;;;1.98;;
35877;SDS011;21982;49.804;24.072;2023-04-03T11:59:54;4.60;;;2.35;;
35877;SDS011;21982;49.804;24.072;2023-04-03T12:02:35;5.05;;;2.63;;
35877;SDS011;21982;49.804;24.072;2023-04-03T12:08:15;3.85;;;2.25;;
35877;SDS011;21982;49.804;24.072;2023-04-03T12:13:33;4.88;;;2.72;;
35877;SDS011;21982;49.804;24.072;2023-04-03T12:16:00;5.63;;;2.83;;
35877;SDS011;21982;49.804;24.072;2023-04-03T12:26:36;7.05;;;2.70;;
35877;SDS011;21982;49.804;24.072;2023-04-03T12:29:14;7.85;;;3.47;;
35877;SDS011;21982;49.804;24.072;2023-04-03T12:32:00;5.93;;;3.22;;
35877;SDS011;21982;49.804;24.072;2023-04-03T12:34:51;3.47;;;2.35;;
35877;SDS011;21982;49.804;24.072;2023-04-03T12:46:09;4.88;;;2.72;;
35877;SDS011;21982;49.804;24.072;2023-04-03T12:51:13;5.65;;;2.63;;
35877;SDS011;21982;49.804;24.072;2023-04-03T12:53:40;3.83;;;2.13;;
35877;SDS011;21982;49.804;24.072;2023-04-03T12:56:20;8.70;;;3.03;;
35877;SDS011;21982;49.804;24.072;2023-04-03T12:58:49;6.13;;;2.78;;
35877;SDS011;21982;49.804;24.072;2023-04-03T13:01:16;5.57;;;3.00;;
35877;SDS011;21982;49.804;24.072;2023-04-03T13:03:44;5.63;;;2.58;;
35877;SDS011;21982;49.804;24.072;2023-04-03T13:06:18;6.40;;;3.28;;
35877;SDS011;21982;49.804;24.072;2023-04-03T13:09:00;4.85;;;2.72;;
35877;SDS011;21982;49.804;24.072;2023-04-03T13:11:36;5.45;;;2.85;;
35877;SDS011;21982;49.804;24.072;2023-04-03T13:14:32;7.18;;;3.33;;
35877;SDS011;21982;49.804;24.072;2023-04-03T13:17:21;7.38;;;3.70;;
35877;SDS011;21982;49.804;24.072;2023-04-03T13:19:46;6.68;;;3.42;;
35877;SDS011;21982;49.804;24.072;2023-04-03T13:22:19;4.90;;;2.88;;
35877;SDS011;21982;49.804;24.072;2023-04-03T13:24:53;5.38;;;2.92;;
35877;SDS011;21982;49.804;24.072;2023-04-03T13:58:28;7.57;;;3.42;;
35877;SDS011;21982;49.804;24.072;2023-04-03T14:03:34;5.75;;;2.72;;
35877;SDS011;21982;49.804;24.072;2023-04-03T14:06:05;5.80;;;2.72;;
35877;SDS011;21982;49.804;24.072;2023-04-03T14:08:32;9.88;;;4.18;;
35877;SDS011;21982;49.804;24.072;2023-04-03T14:10:58;6.72;;;2.83;;
35877;SDS011;21982;49.804;24.072;2023-04-03T14:13:23;4.57;;;2.40;;
35877;SDS011;21982;49.804;24.072;2023-04-03T14:15:49;6.07;;;2.83;;
35877;SDS011;21982;49.804;24.072;2023-04-03T14:18:20;6.68;;;2.92;;
35877;SDS011;21982;49.804;24.072;2023-04-03T14:20:47;7.47;;;3.58;;
35877;SDS011;21982;49.804;24.072;2023-04-03T14:23:15;9.90;;;4.30;;
35877;SDS011;21982;49.804;24.072;2023-04-03T14:25:40;7.40;;;2.70;;
35877;SDS011;21982;49.804;24.072;2023-04-03T14:28:20;5.18;;;2.78;;
35877;SDS011;21982;49.804;24.072;2023-04-03T14:30:48;6.63;;;2.47;;
35877;SDS011;21982;49.804;24.072;2023-04-03T14:33:16;3.97;;;2.47;;
35877;SDS011;21982;49.804;24.072;2023-04-03T14:40:55;6.53;;;3.03;;
35877;SDS011;21982;49.804;24.072;2023-04-03T14:43:21;9.38;;;4.38;;
35877;SDS011;21982;49.804;24.072;2023-04-03T14:45:47;6.30;;;2.97;;
35877;SDS011;21982;49.804;24.072;2023-04-03T14:48:18;5.80;;;2.42;;
35877;SDS011;21982;49.804;24.072;2023-04-03T14:50:47;7.85;;;3.00;;
35877;SDS011;21982;49.804;24.072;2023-04-03T14:53:14;4.35;;;2.53;;
35877;SDS011;21982;49.804;24.072;2023-04-03T14:55:40;6.00;;;3.05;;
35877;SDS011;21982;49.804;24.072;2023-04-03T14:58:11;7.45;;;2.55;;
35877;SDS011;21982;49.804;24.072;2023-04-03T15:00:40;3.78;;;2.05;;
35877;SDS011;21982;49.804;24.072;2023-04-03T15:03:08;7.20;;;2.78;;
35877;SDS011;21982;49.804;24.072;2023-04-03T15:05:37;6.32;;;3.20;;
35877;SDS011;21982;49.804;24.072;2023-04-03T15:08:07;8.98;;;4.18;;
35877;SDS011;21982;49.804;24.072;2023-04-03T15:10:42;8.90;;;3.88;;
35877;SDS011;21982;49.804;24.072;2023-04-03T15:13:10;5.97;;;2.80;;
35877;SDS011;21982;49.804;24.072;2023-04-03T15:15:37;4.50;;;2.35;;
35877;SDS011;21982;49.804;24.072;2023-04-03T15:18:02;8.63;;;4.18;;
35877;SDS011;21982;49.804;24.072;2023-04-03T15:20:29;7.40;;;4.00;;
35877;SDS011;21982;49.804;24.072;2023-04-03T15:22:58;4.80;;;2.70;;
35877;SDS011;21982;49.804;24.072;2023-04-03T15:25:26;5.63;;;2.80;;
35877;SDS011;21982;49.804;24.072;2023-04-03T15:27:52;8.52;;;3.50;;
35877;SDS011;21982;49.804;24.072;2023-04-03T15:30:21;6.50;;;3.00;;
35877;SDS011;21982;49.804;24.072;2023-04-03T15:32:47;8.73;;;3.60;;
35877;SDS011;21982;49.804;24.072;2023-04-03T15:35:13;8.30;;;3.53;;
35877;SDS011;21982;49.804;24.072;2023-04-03T15:37:38;11.35;;;4.68;;
35877;SDS011;21982;49.804;24.072;2023-04-03T15:40:04;7.57;;;3.63;;
35877;SDS011;21982;49.804;24.072;2023-04-03T15:42:30;9.15;;;3.50;;
35877;SDS011;21982;49.804;24.072;2023-04-03T15:44:56;8.27;;;3.22;;
35877;SDS011;21982;49.804;24.072;2023-04-03T15:47:24;7.50;;;4.57;;
35877;SDS011;21982;49.804;24.072;2023-04-03T15:49:50;4.93;;;2.65;;
35877;SDS011;21982;49.804;24.072;2023-04-03T15:52:16;7.35;;;3.47;;
35877;SDS011;21982;49.804;24.072;2023-04-03T15:54:41;6.15;;;2.88;;
35877;SDS011;21982;49.804;24.072;2023-04-03T15:57:06;6.15;;;2.90;;
35877;SDS011;21982;49.804;24.072;2023-04-03T15:59:32;4.63;;;2.90;;
35877;SDS011;21982;49.804;24.072;2023-04-03T16:01:59;4.57;;;2.88;;
35877;SDS011;21982;49.804;24.072;2023-04-03T16:04:27;7.43;;;3.45;;
35877;SDS011;21982;49.804;24.072;2023-04-03T16:06:53;9.88;;;3.45;;
35877;SDS011;21982;49.804;24.072;2023-04-03T16:09:24;7.32;;;3.10;;
35877;SDS011;21982;49.804;24.072;2023-04-03T16:11:49;8.40;;;2.78;;
35877;SDS011;21982;49.804;24.072;2023-04-03T16:14:17;6.38;;;3.08;;
35877;SDS011;21982;49.804;24.072;2023-04-03T16:16:45;5.97;;;2.97;;
35877;SDS011;21982;49.804;24.072;2023-04-03T16:19:11;8.60;;;2.88;;
35877;SDS011;21982;49.804;24.072;2023-04-03T16:21:38;8.35;;;3.88;;
35877;SDS011;21982;49.804;24.072;2023-04-03T16:24:04;5.35;;;2.90;;
35877;SDS011;21982;49.804;24.072;2023-04-03T16:26:29;7.05;;;2.80;;
35877;SDS011;21982;49.804;24.072;2023-04-03T16:28:55;6.57;;;2.90;;
35877;SDS011;21982;49.804;24.072;2023-04-03T16:31:22;8.45;;;3.95;;
35877;SDS011;21982;49.804;24.072;2023-04-03T16:33:49;6.85;;;3.17;;
35877;SDS011;21982;49.804;24.072;2023-04-03T16:36:14;8.60;;;4.15;;
35877;SDS011;21982;49.804;24.072;2023-04-03T16:38:40;6.20;;;3.30;;
35877;SDS011;21982;49.804;24.072;2023-04-03T16:41:07;7.05;;;3.47;;
35877;SDS011;21982;49.804;24.072;2023-04-03T16:43:32;8.20;;;4.40;;
35877;SDS011;21982;49.804;24.072;2023-04-03T16:45:58;8.57;;;3.72;;
35877;SDS011;21982;49.804;24.072;2023-04-03T16:48:26;9.93;;;4.68;;
35877;SDS011;21982;49.804;24.072;2023-04-03T16:50:52;9.90;;;4.45;;
35877;SDS011;21982;49.804;24.072;2023-04-03T16:53:19;9.45;;;4.43;;
35877;SDS011;21982;49.804;24.072;2023-04-03T16:55:45;7.60;;;3.45;;
35877;SDS011;21982;49.804;24.072;2023-04-03T16:58:11;6.68;;;3.58;;
35877;SDS011;21982;49.804;24.072;2023-04-03T17:00:36;7.97;;;2.88;;